sensor_id;sensor_type;location;lat;lon;timestamp;P1;durP1;ratioP1;P2;durP2;ratioP2
18780;SDS011;9519;51.890;8.970;2023-02-28T00:03:19;3.70;;;1.77;;
18780;SDS011;9519;51.890;8.970;2023-02-28T00:08:21;3.80;;;1.67;;
18780;SDS011;9519;51.890;8.970;2023-02-28T00:13:25;2.93;;;1.67;;
18780;SDS011;9519;51.890;8.970;2023-02-28T00:18:27;3.07;;;1.43;;
18780;SDS011;9519;51.890;8.970;2023-02-28T00:23:29;3.37;;;1.70;;
18780;SDS011;9519;51.890;8.970;2023-02-28T00:28:33;3.00;;;1.60;;
18780;SDS011;9519;51.890;8.970;2023-02-28T00:33:35;4.23;;;1.40;;
18780;SDS011;9519;51.890;8.970;2023-02-28T00:38:37;3.67;;;1.50;;
18780;SDS011;9519;51.890;8.970;2023-02-28T00:43:42;3.07;;;1.70;;
18780;SDS011;9519;51.890;8.970;2023-02-28T00:48:44;3.67;;;1.80;;
18780;SDS011;9519;51.890;8.970;2023-02-28T00:53:46;3.83;;;1.70;;
18780;SDS011;9519;51.890;8.970;2023-02-28T00:58:50;2.20;;;1.60;;
18780;SDS011;9519;51.890;8.970;2023-02-28T01:03:52;2.90;;;1.33;;
18780;SDS011;9519;51.890;8.970;2023-02-28T01:08:54;4.23;;;2.30;;
18780;SDS011;9519;51.890;8.970;2023-02-28T01:13:57;2.27;;;1.60;;
18780;SDS011;9519;51.890;8.970;2023-02-28T01:19:00;4.43;;;1.80;;
18780;SDS011;9519;51.890;8.970;2023-02-28T01:24:03;4.23;;;1.80;;
18780;SDS011;9519;51.890;8.970;2023-02-28T01:29:08;3.13;;;1.60;;
18780;SDS011;9519;51.890;8.970;2023-02-28T01:34:10;4.53;;;1.80;;
18780;SDS011;9519;51.890;8.970;2023-02-28T01:39:12;2.87;;;1.80;;
18780;SDS011;9519;51.890;8.970;2023-02-28T01:50:06;2.70;;;1.70;;
18780;SDS011;9519;51.890;8.970;2023-02-28T01:55:16;2.97;;;1.73;;
18780;SDS011;9519;51.890;8.970;2023-02-28T02:00:27;3.37;;;1.80;;
18780;SDS011;9519;51.890;8.970;2023-02-28T02:05:31;3.27;;;1.80;;
18780;SDS011;9519;51.890;8.970;2023-02-28T02:10:34;3.63;;;1.90;;
18780;SDS011;9519;51.890;8.970;2023-02-28T02:15:44;5.37;;;1.90;;
18780;SDS011;9519;51.890;8.970;2023-02-28T02:27:03;3.73;;;2.03;;
18780;SDS011;9519;51.890;8.970;2023-02-28T02:32:30;3.43;;;2.13;;
18780;SDS011;9519;51.890;8.970;2023-02-28T02:38:01;3.70;;;2.00;;
18780;SDS011;9519;51.890;8.970;2023-02-28T02:43:11;3.47;;;1.90;;
18780;SDS011;9519;51.890;8.970;2023-02-28T02:48:21;4.77;;;1.93;;
18780;SDS011;9519;51.890;8.970;2023-02-28T02:53:34;3.60;;;1.87;;
18780;SDS011;9519;51.890;8.970;2023-02-28T02:58:42;3.43;;;1.80;;
18780;SDS011;9519;51.890;8.970;2023-02-28T03:03:48;3.90;;;1.70;;
18780;SDS011;9519;51.890;8.970;2023-02-28T03:08:52;3.97;;;1.77;;
18780;SDS011;9519;51.890;8.970;2023-02-28T03:13:58;3.27;;;1.90;;
18780;SDS011;9519;51.890;8.970;2023-02-28T03:19:41;5.53;;;2.60;;
18780;SDS011;9519;51.890;8.970;2023-02-28T03:24:59;3.80;;;2.20;;
18780;SDS011;9519;51.890;8.970;2023-02-28T03:30:10;4.00;;;1.80;;
18780;SDS011;9519;51.890;8.970;2023-02-28T03:35:20;4.90;;;2.20;;
18780;SDS011;9519;51.890;8.970;2023-02-28T03:40:28;3.00;;;1.97;;
18780;SDS011;9519;51.890;8.970;2023-02-28T03:45:37;4.33;;;2.30;;
18780;SDS011;9519;51.890;8.970;2023-02-28T03:50:44;6.20;;;3.00;;
18780;SDS011;9519;51.890;8.970;2023-02-28T03:55:52;5.47;;;2.90;;
18780;SDS011;9519;51.890;8.970;2023-02-28T04:01:00;4.73;;;2.60;;
18780;SDS011;9519;51.890;8.970;2023-02-28T04:06:12;8.40;;;2.67;;
18780;SDS011;9519;51.890;8.970;2023-02-28T04:11:22;3.97;;;2.20;;
18780;SDS011;9519;51.890;8.970;2023-02-28T04:16:30;5.63;;;2.70;;
18780;SDS011;9519;51.890;8.970;2023-02-28T04:21:35;4.57;;;2.30;;
18780;SDS011;9519;51.890;8.970;2023-02-28T04:26:42;4.37;;;2.23;;
18780;SDS011;9519;51.890;8.970;2023-02-28T04:31:45;4.63;;;2.40;;
18780;SDS011;9519;51.890;8.970;2023-02-28T04:36:48;4.80;;;2.20;;
18780;SDS011;9519;51.890;8.970;2023-02-28T04:41:52;5.17;;;2.30;;
18780;SDS011;9519;51.890;8.970;2023-02-28T04:46:54;4.00;;;2.40;;
18780;SDS011;9519;51.890;8.970;2023-02-28T04:51:56;7.70;;;2.97;;
18780;SDS011;9519;51.890;8.970;2023-02-28T04:57:00;11.13;;;3.20;;
18780;SDS011;9519;51.890;8.970;2023-02-28T05:02:02;8.00;;;3.00;;
18780;SDS011;9519;51.890;8.970;2023-02-28T05:07:06;6.00;;;2.83;;
18780;SDS011;9519;51.890;8.970;2023-02-28T05:12:10;8.57;;;2.70;;
18780;SDS011;9519;51.890;8.970;2023-02-28T05:17:12;6.27;;;3.10;;
18780;SDS011;9519;51.890;8.970;2023-02-28T05:22:15;5.70;;;2.80;;
18780;SDS011;9519;51.890;8.970;2023-02-28T05:27:19;4.90;;;2.90;;
18780;SDS011;9519;51.890;8.970;2023-02-28T05:32:21;5.00;;;2.70;;
18780;SDS011;9519;51.890;8.970;2023-02-28T05:37:23;28.03;;;11.47;;
18780;SDS011;9519;51.890;8.970;2023-02-28T05:42:27;33.80;;;15.10;;
18780;SDS011;9519;51.890;8.970;2023-02-28T05:47:29;6.87;;;3.03;;
18780;SDS011;9519;51.890;8.970;2023-02-28T05:52:31;5.93;;;2.60;;
18780;SDS011;9519;51.890;8.970;2023-02-28T05:57:35;3.87;;;2.47;;
18780;SDS011;9519;51.890;8.970;2023-02-28T06:02:38;4.23;;;2.70;;
18780;SDS011;9519;51.890;8.970;2023-02-28T06:07:40;6.77;;;2.73;;
18780;SDS011;9519;51.890;8.970;2023-02-28T06:12:45;3.03;;;2.00;;
18780;SDS011;9519;51.890;8.970;2023-02-28T06:17:47;4.17;;;2.53;;
18780;SDS011;9519;51.890;8.970;2023-02-28T06:22:49;4.70;;;2.70;;
18780;SDS011;9519;51.890;8.970;2023-02-28T06:27:55;5.37;;;2.80;;
18780;SDS011;9519;51.890;8.970;2023-02-28T06:32:58;3.97;;;2.57;;
18780;SDS011;9519;51.890;8.970;2023-02-28T06:38:00;6.93;;;2.87;;
18780;SDS011;9519;51.890;8.970;2023-02-28T06:43:05;3.80;;;2.50;;
18780;SDS011;9519;51.890;8.970;2023-02-28T06:48:07;6.07;;;2.67;;
18780;SDS011;9519;51.890;8.970;2023-02-28T06:53:10;7.20;;;3.20;;
18780;SDS011;9519;51.890;8.970;2023-02-28T06:58:14;5.23;;;3.43;;
18780;SDS011;9519;51.890;8.970;2023-02-28T07:03:18;7.07;;;3.57;;
18780;SDS011;9519;51.890;8.970;2023-02-28T07:08:21;5.87;;;3.50;;
18780;SDS011;9519;51.890;8.970;2023-02-28T07:13:25;9.73;;;3.97;;
18780;SDS011;9519;51.890;8.970;2023-02-28T07:18:27;8.20;;;3.77;;
18780;SDS011;9519;51.890;8.970;2023-02-28T07:23:30;5.73;;;3.70;;
18780;SDS011;9519;51.890;8.970;2023-02-28T07:28:34;6.67;;;3.10;;
18780;SDS011;9519;51.890;8.970;2023-02-28T07:33:36;7.97;;;4.63;;
18780;SDS011;9519;51.890;8.970;2023-02-28T07:38:38;6.90;;;3.93;;
18780;SDS011;9519;51.890;8.970;2023-02-28T07:43:42;7.47;;;3.57;;
18780;SDS011;9519;51.890;8.970;2023-02-28T07:48:45;9.63;;;3.77;;
18780;SDS011;9519;51.890;8.970;2023-02-28T07:53:47;18.50;;;5.27;;
18780;SDS011;9519;51.890;8.970;2023-02-28T07:58:51;7.97;;;3.57;;
18780;SDS011;9519;51.890;8.970;2023-02-28T08:03:53;6.87;;;3.83;;
18780;SDS011;9519;51.890;8.970;2023-02-28T08:08:57;11.20;;;2.90;;
18780;SDS011;9519;51.890;8.970;2023-02-28T08:14:00;12.77;;;4.17;;
18780;SDS011;9519;51.890;8.970;2023-02-28T08:19:02;11.70;;;4.47;;
18780;SDS011;9519;51.890;8.970;2023-02-28T08:24:04;8.50;;;4.00;;
18780;SDS011;9519;51.890;8.970;2023-02-28T08:29:09;16.30;;;6.23;;
18780;SDS011;9519;51.890;8.970;2023-02-28T08:34:12;21.57;;;8.57;;
18780;SDS011;9519;51.890;8.970;2023-02-28T08:39:16;25.57;;;9.33;;
18780;SDS011;9519;51.890;8.970;2023-02-28T08:44:21;9.67;;;3.90;;
18780;SDS011;9519;51.890;8.970;2023-02-28T08:49:23;10.63;;;4.53;;
18780;SDS011;9519;51.890;8.970;2023-02-28T08:54:25;10.23;;;5.03;;
18780;SDS011;9519;51.890;8.970;2023-02-28T08:59:32;13.07;;;5.83;;
18780;SDS011;9519;51.890;8.970;2023-02-28T09:04:34;5.37;;;3.03;;
18780;SDS011;9519;51.890;8.970;2023-02-28T09:09:36;4.07;;;2.37;;
18780;SDS011;9519;51.890;8.970;2023-02-28T09:14:54;6.77;;;2.77;;
18780;SDS011;9519;51.890;8.970;2023-02-28T09:19:56;4.63;;;2.50;;
18780;SDS011;9519;51.890;8.970;2023-02-28T09:24:59;4.67;;;2.33;;
18780;SDS011;9519;51.890;8.970;2023-02-28T09:30:03;5.33;;;2.57;;
18780;SDS011;9519;51.890;8.970;2023-02-28T09:35:06;4.90;;;2.50;;
18780;SDS011;9519;51.890;8.970;2023-02-28T09:40:13;4.47;;;2.47;;
18780;SDS011;9519;51.890;8.970;2023-02-28T09:45:22;8.43;;;2.80;;
18780;SDS011;9519;51.890;8.970;2023-02-28T09:50:30;6.43;;;2.80;;
18780;SDS011;9519;51.890;8.970;2023-02-28T09:55:39;6.40;;;2.60;;
18780;SDS011;9519;51.890;8.970;2023-02-28T10:00:50;4.37;;;2.40;;
18780;SDS011;9519;51.890;8.970;2023-02-28T10:06:05;4.43;;;2.30;;
18780;SDS011;9519;51.890;8.970;2023-02-28T10:11:14;4.80;;;2.40;;
18780;SDS011;9519;51.890;8.970;2023-02-28T10:16:23;6.27;;;2.80;;
18780;SDS011;9519;51.890;8.970;2023-02-28T10:21:34;4.47;;;2.47;;
18780;SDS011;9519;51.890;8.970;2023-02-28T10:26:40;6.03;;;2.47;;
18780;SDS011;9519;51.890;8.970;2023-02-28T10:31:49;5.63;;;2.33;;
18780;SDS011;9519;51.890;8.970;2023-02-28T10:36:52;5.43;;;2.93;;
18780;SDS011;9519;51.890;8.970;2023-02-28T10:41:55;4.83;;;2.50;;
18780;SDS011;9519;51.890;8.970;2023-02-28T10:46:59;4.73;;;2.90;;
18780;SDS011;9519;51.890;8.970;2023-02-28T10:52:01;7.53;;;3.20;;
18780;SDS011;9519;51.890;8.970;2023-02-28T10:57:16;8.93;;;3.33;;
18780;SDS011;9519;51.890;8.970;2023-02-28T11:02:34;5.63;;;2.80;;
18780;SDS011;9519;51.890;8.970;2023-02-28T11:07:40;6.17;;;3.10;;
18780;SDS011;9519;51.890;8.970;2023-02-28T11:12:43;7.47;;;2.90;;
18780;SDS011;9519;51.890;8.970;2023-02-28T11:17:54;6.13;;;2.73;;
18780;SDS011;9519;51.890;8.970;2023-02-28T11:22:59;4.87;;;2.60;;
18780;SDS011;9519;51.890;8.970;2023-02-28T11:28:05;8.63;;;3.20;;
18780;SDS011;9519;51.890;8.970;2023-02-28T11:33:28;6.43;;;2.93;;
18780;SDS011;9519;51.890;8.970;2023-02-28T11:38:31;6.97;;;2.90;;
18780;SDS011;9519;51.890;8.970;2023-02-28T11:43:40;4.33;;;2.57;;
18780;SDS011;9519;51.890;8.970;2023-02-28T11:49:05;6.30;;;2.27;;
18780;SDS011;9519;51.890;8.970;2023-02-28T12:00:07;6.80;;;2.60;;
18780;SDS011;9519;51.890;8.970;2023-02-28T12:05:28;3.93;;;2.43;;
18780;SDS011;9519;51.890;8.970;2023-02-28T12:10:44;4.93;;;2.67;;
18780;SDS011;9519;51.890;8.970;2023-02-28T12:22:12;5.57;;;2.40;;
18780;SDS011;9519;51.890;8.970;2023-02-28T12:27:31;6.37;;;2.60;;
18780;SDS011;9519;51.890;8.970;2023-02-28T12:32:40;7.20;;;3.10;;
18780;SDS011;9519;51.890;8.970;2023-02-28T12:37:49;6.03;;;2.50;;
18780;SDS011;9519;51.890;8.970;2023-02-28T12:42:58;5.20;;;2.90;;
18780;SDS011;9519;51.890;8.970;2023-02-28T12:48:07;6.57;;;3.03;;
18780;SDS011;9519;51.890;8.970;2023-02-28T12:53:20;5.67;;;2.50;;
18780;SDS011;9519;51.890;8.970;2023-02-28T12:58:30;5.30;;;2.57;;
18780;SDS011;9519;51.890;8.970;2023-02-28T13:03:44;5.97;;;2.37;;
18780;SDS011;9519;51.890;8.970;2023-02-28T13:09:17;6.00;;;2.80;;
18780;SDS011;9519;51.890;8.970;2023-02-28T13:14:25;6.93;;;3.40;;
18780;SDS011;9519;51.890;8.970;2023-02-28T13:19:34;4.70;;;2.73;;
18780;SDS011;9519;51.890;8.970;2023-02-28T13:24:44;7.67;;;2.47;;
18780;SDS011;9519;51.890;8.970;2023-02-28T13:29:51;4.90;;;2.20;;
18780;SDS011;9519;51.890;8.970;2023-02-28T13:35:13;6.07;;;2.50;;
18780;SDS011;9519;51.890;8.970;2023-02-28T13:40:38;5.83;;;2.70;;
18780;SDS011;9519;51.890;8.970;2023-02-28T13:45:40;5.63;;;2.53;;
18780;SDS011;9519;51.890;8.970;2023-02-28T13:51:28;4.77;;;2.93;;
18780;SDS011;9519;51.890;8.970;2023-02-28T13:56:46;6.37;;;2.70;;
18780;SDS011;9519;51.890;8.970;2023-02-28T14:02:03;5.63;;;2.60;;
18780;SDS011;9519;51.890;8.970;2023-02-28T14:07:46;6.30;;;3.70;;
18780;SDS011;9519;51.890;8.970;2023-02-28T14:12:59;4.63;;;2.70;;
18780;SDS011;9519;51.890;8.970;2023-02-28T14:18:15;6.50;;;3.07;;
18780;SDS011;9519;51.890;8.970;2023-02-28T14:23:30;3.60;;;2.30;;
18780;SDS011;9519;51.890;8.970;2023-02-28T14:28:53;6.87;;;2.70;;
18780;SDS011;9519;51.890;8.970;2023-02-28T14:34:26;5.57;;;2.70;;
18780;SDS011;9519;51.890;8.970;2023-02-28T14:39:43;4.60;;;2.70;;
18780;SDS011;9519;51.890;8.970;2023-02-28T14:44:54;4.80;;;2.57;;
18780;SDS011;9519;51.890;8.970;2023-02-28T14:49:57;4.93;;;2.80;;
18780;SDS011;9519;51.890;8.970;2023-02-28T14:55:01;5.50;;;2.80;;
18780;SDS011;9519;51.890;8.970;2023-02-28T15:00:16;7.00;;;3.43;;
18780;SDS011;9519;51.890;8.970;2023-02-28T15:05:25;4.20;;;2.13;;
18780;SDS011;9519;51.890;8.970;2023-02-28T15:10:30;4.23;;;2.67;;
18780;SDS011;9519;51.890;8.970;2023-02-28T15:15:47;6.00;;;2.50;;
18780;SDS011;9519;51.890;8.970;2023-02-28T15:20:54;5.67;;;2.40;;
18780;SDS011;9519;51.890;8.970;2023-02-28T15:25:59;4.90;;;2.60;;
18780;SDS011;9519;51.890;8.970;2023-02-28T15:31:03;6.73;;;2.70;;
18780;SDS011;9519;51.890;8.970;2023-02-28T15:36:25;5.17;;;2.37;;
18780;SDS011;9519;51.890;8.970;2023-02-28T15:41:35;3.90;;;2.43;;
18780;SDS011;9519;51.890;8.970;2023-02-28T15:46:40;5.50;;;2.70;;
18780;SDS011;9519;51.890;8.970;2023-02-28T15:51:55;4.77;;;2.73;;
18780;SDS011;9519;51.890;8.970;2023-02-28T15:57:03;5.80;;;3.03;;
18780;SDS011;9519;51.890;8.970;2023-02-28T16:02:13;5.60;;;3.00;;
18780;SDS011;9519;51.890;8.970;2023-02-28T16:07:19;6.07;;;2.60;;
18780;SDS011;9519;51.890;8.970;2023-02-28T16:12:24;7.20;;;3.57;;
18780;SDS011;9519;51.890;8.970;2023-02-28T16:17:31;5.03;;;2.60;;
18780;SDS011;9519;51.890;8.970;2023-02-28T16:22:38;6.80;;;3.43;;
18780;SDS011;9519;51.890;8.970;2023-02-28T16:27:42;9.50;;;3.47;;
18780;SDS011;9519;51.890;8.970;2023-02-28T16:32:50;7.83;;;3.27;;
18780;SDS011;9519;51.890;8.970;2023-02-28T16:37:56;5.07;;;3.10;;
18780;SDS011;9519;51.890;8.970;2023-02-28T16:42:58;6.83;;;3.30;;
18780;SDS011;9519;51.890;8.970;2023-02-28T16:48:07;5.93;;;3.13;;
18780;SDS011;9519;51.890;8.970;2023-02-28T16:53:13;8.07;;;2.77;;
18780;SDS011;9519;51.890;8.970;2023-02-28T16:58:15;6.80;;;3.13;;
18780;SDS011;9519;51.890;8.970;2023-02-28T17:03:22;6.13;;;3.20;;
18780;SDS011;9519;51.890;8.970;2023-02-28T17:08:25;7.30;;;3.70;;
18780;SDS011;9519;51.890;8.970;2023-02-28T17:13:29;11.57;;;5.00;;
18780;SDS011;9519;51.890;8.970;2023-02-28T17:18:34;6.00;;;3.80;;
18780;SDS011;9519;51.890;8.970;2023-02-28T17:23:36;6.47;;;3.70;;
18780;SDS011;9519;51.890;8.970;2023-02-28T17:28:38;9.63;;;4.63;;
18780;SDS011;9519;51.890;8.970;2023-02-28T17:33:42;7.67;;;3.53;;
18780;SDS011;9519;51.890;8.970;2023-02-28T17:38:44;8.23;;;4.50;;
18780;SDS011;9519;51.890;8.970;2023-02-28T17:43:46;8.03;;;4.10;;
18780;SDS011;9519;51.890;8.970;2023-02-28T17:48:50;8.03;;;4.13;;
18780;SDS011;9519;51.890;8.970;2023-02-28T17:53:54;7.70;;;3.97;;
18780;SDS011;9519;51.890;8.970;2023-02-28T17:58:56;7.87;;;4.50;;
18780;SDS011;9519;51.890;8.970;2023-02-28T18:04:00;8.07;;;3.80;;
18780;SDS011;9519;51.890;8.970;2023-02-28T18:09:02;8.43;;;3.90;;
18780;SDS011;9519;51.890;8.970;2023-02-28T18:14:04;8.87;;;3.80;;
18780;SDS011;9519;51.890;8.970;2023-02-28T18:19:07;8.00;;;3.93;;
18780;SDS011;9519;51.890;8.970;2023-02-28T18:24:14;5.80;;;3.57;;
18780;SDS011;9519;51.890;8.970;2023-02-28T18:29:19;9.03;;;4.00;;
18780;SDS011;9519;51.890;8.970;2023-02-28T18:34:24;7.93;;;4.73;;
18780;SDS011;9519;51.890;8.970;2023-02-28T18:39:27;7.33;;;4.83;;
18780;SDS011;9519;51.890;8.970;2023-02-28T18:44:31;7.23;;;4.50;;
18780;SDS011;9519;51.890;8.970;2023-02-28T18:49:35;9.03;;;4.40;;
18780;SDS011;9519;51.890;8.970;2023-02-28T18:54:37;7.80;;;4.30;;
18780;SDS011;9519;51.890;8.970;2023-02-28T18:59:39;6.50;;;4.40;;
18780;SDS011;9519;51.890;8.970;2023-02-28T19:04:43;6.60;;;4.53;;
18780;SDS011;9519;51.890;8.970;2023-02-28T19:09:45;9.67;;;5.10;;
18780;SDS011;9519;51.890;8.970;2023-02-28T19:14:47;7.17;;;4.67;;
18780;SDS011;9519;51.890;8.970;2023-02-28T19:19:51;8.43;;;5.20;;
18780;SDS011;9519;51.890;8.970;2023-02-28T19:24:53;8.37;;;5.43;;
18780;SDS011;9519;51.890;8.970;2023-02-28T19:29:56;8.93;;;5.10;;
18780;SDS011;9519;51.890;8.970;2023-02-28T19:35:00;7.60;;;4.60;;
18780;SDS011;9519;51.890;8.970;2023-02-28T19:40:03;14.03;;;7.67;;
18780;SDS011;9519;51.890;8.970;2023-02-28T19:45:08;11.93;;;7.57;;
18780;SDS011;9519;51.890;8.970;2023-02-28T19:50:17;9.77;;;6.10;;
18780;SDS011;9519;51.890;8.970;2023-02-28T19:55:19;8.37;;;4.80;;
18780;SDS011;9519;51.890;8.970;2023-02-28T20:00:21;8.60;;;5.17;;
18780;SDS011;9519;51.890;8.970;2023-02-28T20:05:25;8.83;;;4.90;;
18780;SDS011;9519;51.890;8.970;2023-02-28T20:10:27;9.43;;;5.53;;
18780;SDS011;9519;51.890;8.970;2023-02-28T20:15:29;12.33;;;6.43;;
18780;SDS011;9519;51.890;8.970;2023-02-28T20:20:33;9.00;;;5.10;;
18780;SDS011;9519;51.890;8.970;2023-02-28T20:25:37;8.33;;;4.60;;
18780;SDS011;9519;51.890;8.970;2023-02-28T20:30:40;7.47;;;5.10;;
18780;SDS011;9519;51.890;8.970;2023-02-28T20:35:43;7.90;;;4.77;;
18780;SDS011;9519;51.890;8.970;2023-02-28T20:40:46;9.10;;;5.50;;
18780;SDS011;9519;51.890;8.970;2023-02-28T20:45:51;10.37;;;5.60;;
18780;SDS011;9519;51.890;8.970;2023-02-28T20:50:55;7.80;;;5.03;;
18780;SDS011;9519;51.890;8.970;2023-02-28T20:56:00;8.73;;;5.57;;
18780;SDS011;9519;51.890;8.970;2023-02-28T21:01:06;8.03;;;5.53;;
18780;SDS011;9519;51.890;8.970;2023-02-28T21:06:16;7.57;;;5.77;;
18780;SDS011;9519;51.890;8.970;2023-02-28T21:11:22;9.30;;;5.40;;
18780;SDS011;9519;51.890;8.970;2023-02-28T21:16:26;8.40;;;5.33;;
18780;SDS011;9519;51.890;8.970;2023-02-28T21:21:31;7.97;;;5.27;;
18780;SDS011;9519;51.890;8.970;2023-02-28T21:26:37;8.13;;;5.03;;
18780;SDS011;9519;51.890;8.970;2023-02-28T21:31:40;8.33;;;5.60;;
18780;SDS011;9519;51.890;8.970;2023-02-28T21:36:44;10.10;;;6.10;;
18780;SDS011;9519;51.890;8.970;2023-02-28T21:41:46;8.87;;;5.33;;
18780;SDS011;9519;51.890;8.970;2023-02-28T21:46:50;8.47;;;5.37;;
18780;SDS011;9519;51.890;8.970;2023-02-28T21:51:55;7.63;;;5.33;;
18780;SDS011;9519;51.890;8.970;2023-02-28T21:56:58;7.57;;;4.87;;
18780;SDS011;9519;51.890;8.970;2023-02-28T22:02:00;9.70;;;5.20;;
18780;SDS011;9519;51.890;8.970;2023-02-28T22:07:05;12.03;;;6.83;;
18780;SDS011;9519;51.890;8.970;2023-02-28T22:12:07;10.97;;;7.07;;
18780;SDS011;9519;51.890;8.970;2023-02-28T22:17:09;11.73;;;8.20;;
18780;SDS011;9519;51.890;8.970;2023-02-28T22:22:13;14.87;;;8.97;;
18780;SDS011;9519;51.890;8.970;2023-02-28T22:27:15;11.97;;;8.27;;
18780;SDS011;9519;51.890;8.970;2023-02-28T22:32:17;14.40;;;8.03;;
18780;SDS011;9519;51.890;8.970;2023-02-28T22:37:20;11.53;;;7.63;;
18780;SDS011;9519;51.890;8.970;2023-02-28T22:42:22;13.80;;;7.60;;
18780;SDS011;9519;51.890;8.970;2023-02-28T22:47:25;11.93;;;7.57;;
18780;SDS011;9519;51.890;8.970;2023-02-28T22:52:29;11.47;;;7.40;;
18780;SDS011;9519;51.890;8.970;2023-02-28T22:57:31;12.70;;;7.47;;
18780;SDS011;9519;51.890;8.970;2023-02-28T23:02:33;14.70;;;8.23;;
18780;SDS011;9519;51.890;8.970;2023-02-28T23:07:37;11.80;;;7.63;;
18780;SDS011;9519;51.890;8.970;2023-02-28T23:12:41;10.47;;;7.20;;
18780;SDS011;9519;51.890;8.970;2023-02-28T23:17:50;11.93;;;7.97;;
18780;SDS011;9519;51.890;8.970;2023-02-28T23:22:53;12.53;;;7.57;;
18780;SDS011;9519;51.890;8.970;2023-02-28T23:27:55;10.17;;;6.97;;
18780;SDS011;9519;51.890;8.970;2023-02-28T23:32:58;9.60;;;6.97;;
18780;SDS011;9519;51.890;8.970;2023-02-28T23:38:01;11.10;;;7.47;;
18780;SDS011;9519;51.890;8.970;2023-02-28T23:43:04;11.40;;;7.73;;
18780;SDS011;9519;51.890;8.970;2023-02-28T23:48:06;12.97;;;9.27;;
18780;SDS011;9519;51.890;8.970;2023-02-28T23:53:10;12.83;;;8.87;;
18780;SDS011;9519;51.890;8.970;2023-02-28T23:58:12;11.07;;;7.47;;
